Time;durP1;ratioP1;P1;durP2;ratioP2;P2;SDS_P1;SDS_P2;PMS_P1;PMS_P2;Temp;Humidity;BMP_temperature;BMP_pressure;BME280_temperature;BME280_humidity;BME280_pressure;Samples;Min_cycle;Max_cycle;Signal;HPM_P1;HPM_P2
2023/01/12 09:56:39;;;;;;;;;21.25;19.00;;;;;19.79;51.37;101347.22;5051074;28;45446;-77
2023/01/12 09:59:24;;;;;;;;;18.25;18.00;;;;;20.13;51.77;101334.47;5068198;27;45397;-77
2023/01/12 10:01:51;;;;;;;;;18.25;16.25;;;;;20.67;52.43;101334.34;5068917;27;45384;-74
2023/01/12 10:04:17;;;;;;;;;17.25;15.75;;;;;21.17;51.86;101324.59;5069403;27;45483;-74
2023/01/12 10:06:43;;;;;;;;;18.25;18.25;;;;;21.70;51.49;101327.06;5061654;28;46216;-74
2023/01/12 10:09:17;;;;;;;;;19.00;17.25;;;;;22.23;51.75;101335.72;5063314;27;45557;-73
2023/01/12 10:11:53;;;;;;;;;21.25;17.00;;;;;22.69;51.22;101335.06;5069025;27;45560;-73
2023/01/12 10:14:40;;;;;;;;;17.00;15.75;;;;;23.15;50.05;101324.28;5067734;27;45604;-73
2023/01/12 10:17:16;;;;;;;;;19.50;15.25;;;;;23.53;49.87;101338.59;5065208;27;45474;-73
2023/01/12 10:19:49;;;;;;;;;18.50;16.50;;;;;23.88;49.24;101335.16;5053337;27;45534;-74
2023/01/12 10:22:35;;;;;;;;;18.75;17.00;;;;;24.20;48.91;101336.47;5066237;28;45464;-73
2023/01/12 10:25:39;;;;;;;;;18.75;16.00;;;;;24.51;48.52;101345.97;5051169;28;45807;-74
2023/01/12 10:28:12;;;;;;;;;21.25;19.25;;;;;24.78;47.86;101346.81;5068465;28;45533;-73
2023/01/12 10:30:39;;;;;;;;;18.00;18.00;;;;;24.96;47.45;101344.00;5067920;28;45524;-73
2023/01/12 10:33:11;;;;;;;;;17.00;17.00;;;;;25.11;47.07;101345.13;5068792;28;45455;-74
2023/01/12 10:35:52;;;;;;;;;20.33;16.00;;;;;25.23;46.68;101342.94;5048010;28;45601;-73
2023/01/12 10:38:25;;;;;;;;;22.00;17.50;;;;;25.33;46.57;101333.75;5026879;28;45351;-73
2023/01/12 10:41:08;;;;;;;;;20.25;17.25;;;;;25.44;46.06;101333.47;5026501;28;45503;-73
2023/01/12 10:43:33;;;;;;;;;25.25;19.25;;;;;25.51;45.62;101329.03;5037664;28;45316;-72
2023/01/12 10:46:26;;;;;;;;;23.00;20.50;;;;;25.59;44.76;101330.13;5039282;27;45489;-74
2023/01/12 10:48:53;;;;;;;;;26.67;20.33;;;;;25.63;44.53;101328.78;5034876;27;45972;-75
2023/01/12 10:51:33;;;;;;;;;29.33;23.00;;;;;25.67;44.24;101332.84;5026948;27;45734;-74
2023/01/12 10:54:16;;;;;;;;;19.00;15.75;;;;;25.70;44.26;101337.94;5033157;28;45424;-74
2023/01/12 10:56:52;;;;;;;;;21.33;19.33;;;;;25.71;44.24;101334.19;5036115;27;45335;-73
2023/01/12 10:59:21;;;;;;;;;24.50;20.75;;;;;25.74;44.03;101327.56;5033938;28;45452;-73
2023/01/12 11:02:12;;;;;;;;;21.67;19.00;;;;;25.76;43.13;101325.53;5043952;28;45413;-73
2023/01/12 11:04:43;;;;;;;;;31.50;24.25;;;;;25.78;43.31;101318.91;5051067;27;45992;-72
2023/01/12 11:07:09;;;;;;;;;20.67;19.33;;;;;25.79;43.13;101317.06;5038986;28;45522;-73
2023/01/12 11:09:35;;;;;;;;;31.00;24.00;;;;;25.81;43.19;101315.00;5014850;28;45945;-74
2023/01/12 11:12:18;;;;;;;;;19.00;17.67;;;;;25.84;43.12;101306.53;5024341;28;45477;-73
2023/01/12 11:15:15;;;;;;;;;29.00;22.75;;;;;25.90;43.22;101303.09;5034259;27;45635;-74
2023/01/12 11:17:53;;;;;;;;;22.67;22.00;;;;;25.95;42.94;101288.16;5032458;28;45555;-73
2023/01/12 11:20:31;;;;;;;;;21.67;21.67;;;;;25.99;42.46;101278.63;5025885;27;46590;-74
2023/01/12 11:23:02;;;;;;;;;21.33;21.33;;;;;26.03;42.22;101282.69;5035039;27;45457;-74
2023/01/12 11:25:38;;;;;;;;;22.00;20.33;;;;;26.07;42.42;101280.47;5032722;28;45352;-73
2023/01/12 11:28:28;;;;;;;;;24.00;22.00;;;;;26.08;42.15;101277.59;5038972;28;45422;-74
2023/01/12 11:31:09;;;;;;;;;22.67;22.67;;;;;26.10;41.96;101277.41;5027809;27;45718;-74
2023/01/12 11:33:42;;;;;;;;;23.00;22.33;;;;;26.09;41.64;101273.00;5024484;28;46355;-74
2023/01/12 11:36:19;;;;;;;;;27.00;21.67;;;;;26.09;41.77;101278.44;5025259;27;45464;-74
2023/01/12 11:38:48;;;;;;;;;24.33;21.67;;;;;26.07;41.54;101269.59;5029532;27;45586;-73
2023/01/12 11:41:24;;;;;;;;;24.00;20.67;;;;;26.03;41.52;101267.22;5032200;28;45495;-73
2023/01/12 11:44:07;;;;;;;;;20.00;18.33;;;;;26.01;41.46;101263.84;5033079;27;45825;-74
2023/01/12 11:46:39;;;;;;;;;13.00;9.33;;;;;25.98;41.62;101269.59;5031851;27;45461;-73
2023/01/12 11:49:16;;;;;;;;;19.00;18.33;;;;;25.97;41.61;101267.91;5031192;27;45461;-74
2023/01/12 11:51:42;;;;;;;;;21.00;17.33;;;;;25.95;40.89;101266.41;5019577;27;45343;-74
2023/01/12 11:54:15;;;;;;;;;20.67;18.33;;;;;25.95;41.15;101272.66;5031454;27;45384;-74
2023/01/12 11:57:08;;;;;;;;;18.33;13.67;;;;;25.96;41.06;101279.81;5028506;27;45495;-81
2023/01/12 12:00:18;;;;;;;;;12.00;12.00;;;;;25.94;41.15;101276.41;5029061;27;45421;-74
2023/01/12 12:02:55;;;;;;;;;14.67;14.67;;;;;25.93;40.68;101269.28;5027297;27;45448;-74
2023/01/12 12:05:27;;;;;;;;;14.67;14.00;;;;;25.91;41.11;101264.00;5023215;27;45941;-75
2023/01/12 12:08:19;;;;;;;;;12.00;12.00;;;;;25.90;40.56;101245.13;5026250;28;45422;-75
2023/01/12 12:10:56;;;;;;;;;18.00;15.67;;;;;25.89;40.74;101252.47;5026563;27;45494;-74
2023/01/12 12:13:30;;;;;;;;;11.33;10.67;;;;;25.88;40.60;101245.31;5032307;28;46231;-76
2023/01/12 12:16:11;;;;;;;;;16.33;13.00;;;;;25.86;40.41;101239.19;5024857;28;45702;-78
2023/01/12 12:19:04;;;;;;;;;15.67;12.00;;;;;25.86;40.58;101244.66;5022399;28;45392;-76
2023/01/12 12:21:29;;;;;;;;;13.00;13.00;;;;;25.86;40.10;101241.94;5010812;28;45605;-76
2023/01/12 12:24:12;;;;;;;;;10.67;10.00;;;;;25.86;40.54;101236.50;5025915;28;45402;-76
2023/01/12 12:26:52;;;;;;;;;11.00;9.33;;;;;25.85;40.29;101220.34;5021154;28;45457;-77
2023/01/12 12:29:23;;;;;;;;;11.33;10.00;;;;;25.87;40.63;101211.00;5032251;28;45445;-76
2023/01/12 12:32:15;;;;;;;;;14.00;12.33;;;;;25.87;40.15;101205.56;5031976;28;45950;-76
2023/01/12 12:35:15;;;;;;;;;13.33;11.33;;;;;25.87;40.21;101193.84;5019867;28;46520;-76
2023/01/12 15:02:49;;;;;;;;;28.00;23.25;;;;;18.55;47.88;101066.69;5078519;27;45468;-80
2023/01/12 15:05:24;;;;;;;;;25.50;22.75;;;;;18.82;48.88;101059.97;5066471;27;45483;-78
2023/01/12 15:08:01;;;;;;;;;29.25;23.25;;;;;19.28;48.98;101051.69;5073171;27;45530;-79
2023/01/12 15:10:35;;;;;;;;;31.50;27.00;;;;;19.82;49.36;101056.88;5066811;27;45601;-81
2023/01/12 15:13:27;;;;;;;;;28.00;24.75;;;;;20.41;49.05;101061.63;5077035;27;46972;-78
2023/01/12 15:27:11;;;;;;;;;30.25;26.25;;;;;22.55;46.83;101053.19;5072652;27;45549;-76
2023/01/12 15:29:36;;;;;;;;;23.50;21.25;;;;;22.81;46.31;101038.88;5070298;28;45372;-78
2023/01/12 15:32:04;;;;;;;;;27.00;22.00;;;;;23.04;46.08;101049.19;5075282;27;45280;-76
2023/01/12 15:34:29;;;;;;;;;26.25;24.50;;;;;23.25;45.96;101039.84;5070229;27;45938;-75
2023/01/12 15:36:54;;;;;;;;;26.50;26.00;;;;;23.44;45.58;101044.25;5068564;27;45340;-76
2023/01/12 15:39:20;;;;;;;;;25.50;22.75;;;;;23.58;45.25;101026.53;5071895;27;45991;-77
2023/01/12 15:44:29;;;;;;;;;24.50;22.75;;;;;23.92;44.77;101017.50;5063306;27;45739;-76
2023/01/12 15:46:55;;;;;;;;;25.50;24.75;;;;;24.07;44.69;101042.13;5077514;27;45680;-75
2023/01/12 15:49:20;;;;;;;;;27.75;23.00;;;;;24.21;44.33;101046.09;5072805;27;46686;-78
2023/01/12 15:51:50;;;;;;;;;27.00;26.75;;;;;24.36;44.30;101039.19;5074937;27;46520;-74
2023/01/12 15:54:18;;;;;;;;;32.25;23.25;;;;;24.44;43.67;101042.75;5076680;27;45877;-75
2023/01/12 15:56:43;;;;;;;;;25.75;21.75;;;;;24.53;43.92;101037.34;5077071;27;45495;-75
2023/01/12 15:59:09;;;;;;;;;25.50;22.75;;;;;24.60;43.40;101032.91;5079619;27;45443;-75
2023/01/12 16:01:41;;;;;;;;;24.50;20.50;;;;;24.67;43.00;101044.81;5085712;27;45524;-75
2023/01/12 16:04:21;;;;;;;;;22.67;16.00;;;;;24.70;42.81;101030.06;5072528;27;45366;-76
2023/01/12 16:06:47;;;;;;;;;20.33;17.33;;;;;24.75;42.54;101043.97;5089155;27;45481;-76
2023/01/12 16:09:13;;;;;;;;;21.67;18.33;;;;;24.77;42.29;101050.06;5085461;27;45474;-76
2023/01/12 16:11:38;;;;;;;;;18.67;16.33;;;;;24.81;42.11;101035.13;5086242;27;45489;-77
2023/01/12 16:14:03;;;;;;;;;26.33;16.67;;;;;24.86;42.62;101032.78;5067306;27;46088;-75
2023/01/12 16:16:29;;;;;;;;;27.67;22.33;;;;;24.93;41.95;101037.56;5074784;28;45421;-77
2023/01/12 16:18:58;;;;;;;;;26.67;17.67;;;;;24.98;42.10;101038.72;5070246;28;45442;-77
2023/01/12 16:21:25;;;;;;;;;21.00;18.00;;;;;25.04;41.96;101034.47;5062154;28;45523;-76
2023/01/12 16:23:50;;;;;;;;;17.67;14.00;;;;;25.12;42.07;101044.47;5068916;28;46393;-76
2023/01/12 16:26:16;;;;;;;;;22.00;16.33;;;;;25.16;41.77;101042.25;5064214;28;45595;-77
2023/01/12 16:28:41;;;;;;;;;15.67;14.67;;;;;25.21;41.72;101040.72;5058275;28;45523;-76
2023/01/12 16:31:09;;;;;;;;;14.33;13.00;;;;;25.25;41.85;101042.06;5066416;28;45426;-77
2023/01/12 16:33:36;;;;;;;;;20.00;15.33;;;;;25.26;41.45;101019.31;5059982;28;45504;-75
2023/01/12 16:36:02;;;;;;;;;23.33;16.67;;;;;25.33;41.76;101018.63;5068875;28;45491;-75
2023/01/12 16:38:27;;;;;;;;;20.00;16.00;;;;;25.38;41.83;101017.09;5054956;28;45654;-77
2023/01/12 16:40:53;;;;;;;;;19.00;13.67;;;;;25.44;41.39;101033.72;5050603;27;45522;-77
2023/01/12 16:43:19;;;;;;;;;17.33;15.67;;;;;25.49;41.63;101036.75;5057139;28;46001;-77
2023/01/12 16:45:46;;;;;;;;;18.33;17.00;;;;;25.52;41.37;101042.69;5051056;28;45397;-76
2023/01/12 16:48:12;;;;;;;;;20.33;17.67;;;;;25.53;41.40;101038.94;5056482;28;47064;-75
2023/01/12 16:50:41;;;;;;;;;15.67;15.00;;;;;25.56;40.76;101035.06;5064517;28;45498;-76
2023/01/12 16:53:08;;;;;;;;;20.67;16.33;;;;;25.55;41.30;101036.09;5050268;28;46114;-76
2023/01/12 16:55:35;;;;;;;;;22.33;15.00;;;;;25.53;40.94;101030.81;5053668;28;45447;-76
2023/01/12 16:58:00;;;;;;;;;15.00;13.67;;;;;25.51;41.04;101030.09;5059111;28;45510;-76
2023/01/12 17:00:26;;;;;;;;;17.00;14.00;;;;;25.50;40.68;101031.13;5053777;28;45784;-76
2023/01/12 17:02:55;;;;;;;;;14.33;13.67;;;;;25.50;40.83;101024.88;5049381;28;45750;-76
2023/01/12 17:05:21;;;;;;;;;13.33;12.00;;;;;25.47;40.51;101022.50;5054087;28;46855;-79
2023/01/12 17:07:47;;;;;;;;;14.00;14.00;;;;;25.47;40.55;101026.03;5056772;28;45927;-76
2023/01/12 17:10:13;;;;;;;;;12.67;12.67;;;;;25.47;40.62;101022.50;5057822;28;45702;-74
2023/01/12 17:12:38;;;;;;;;;16.33;14.67;;;;;25.46;40.49;101020.81;5057828;28;46868;-78
2023/01/12 17:15:04;;;;;;;;;14.33;11.00;;;;;25.47;40.59;101014.34;5058889;27;48390;-77
2023/01/12 17:17:29;;;;;;;;;13.00;11.67;;;;;25.47;40.69;101017.88;5067655;28;45393;-78
2023/01/12 17:19:54;;;;;;;;;13.33;13.33;;;;;25.48;40.04;101006.03;5061484;27;50575;-78
2023/01/12 17:22:20;;;;;;;;;16.00;11.00;;;;;25.49;40.67;100994.13;5069237;28;46364;-77
2023/01/12 17:24:45;;;;;;;;;9.00;9.00;;;;;25.50;40.18;100998.53;5058447;27;45333;-78
2023/01/12 17:27:10;;;;;;;;;12.33;12.00;;;;;25.52;40.17;100987.50;5072045;28;45453;-78
2023/01/12 17:29:36;;;;;;;;;12.33;10.67;;;;;25.57;40.31;101003.28;5075605;28;45426;-77
2023/01/12 17:32:02;;;;;;;;;9.67;9.33;;;;;25.60;40.43;100994.78;5071511;28;45376;-77
2023/01/12 17:34:29;;;;;;;;;13.00;12.00;;;;;25.64;39.80;100987.97;5063907;28;45740;-74
2023/01/12 17:36:56;;;;;;;;;16.33;15.00;;;;;25.63;40.00;100981.69;5058247;28;45425;-74
2023/01/12 17:39:21;;;;;;;;;23.67;18.67;;;;;25.62;39.79;100990.00;5055296;28;45529;-75
2023/01/12 17:44:30;;;;;;;;;23.33;18.00;;;;;25.55;39.45;100987.19;5053131;28;45513;-74
2023/01/12 17:46:56;;;;;;;;;22.67;22.33;;;;;25.53;40.04;100960.16;5072064;28;47162;-75
2023/01/12 17:49:21;;;;;;;;;22.67;21.33;;;;;25.52;39.65;100982.06;5061672;27;45424;-74
2023/01/12 17:51:46;;;;;;;;;22.67;19.67;;;;;25.51;39.42;100991.25;5059691;28;46317;-72
2023/01/12 17:54:14;;;;;;;;;17.67;14.67;;;;;25.48;39.94;100976.13;5055320;28;45328;-73
2023/01/12 17:56:39;;;;;;;;;21.00;19.33;;;;;25.45;39.42;100975.63;5062190;28;45445;-72
2023/01/12 17:59:06;;;;;;;;;16.00;15.67;;;;;25.42;39.58;100976.81;5056738;28;45557;-73
2023/01/12 18:01:34;;;;;;;;;17.33;15.67;;;;;25.39;39.49;100988.88;5061188;28;46164;-72
2023/01/12 18:04:00;;;;;;;;;18.00;16.67;;;;;25.37;39.14;100992.78;5065049;28;45547;-73
2023/01/12 18:06:26;;;;;;;;;19.33;15.33;;;;;25.36;39.56;100994.69;5069902;28;45450;-72
2023/01/12 18:08:55;;;;;;;;;20.00;14.00;;;;;25.32;39.81;100989.75;5071227;28;45419;-74
2023/01/12 18:11:20;;;;;;;;;17.33;14.67;;;;;25.30;39.46;100989.94;5057926;28;47026;-72
2023/01/12 18:13:45;;;;;;;;;5.00;3.00;;;;;25.26;39.48;100984.00;5051600;28;45530;-74
2023/01/12 18:16:13;;;;;;;;;12.67;10.67;;;;;25.26;39.36;100978.56;5052901;28;45530;-75
2023/01/12 18:18:40;;;;;;;;;15.00;11.33;;;;;25.23;39.58;100978.94;5051222;28;45636;-77
2023/01/12 18:21:08;;;;;;;;;15.00;15.00;;;;;25.26;39.34;100986.72;5053703;28;45431;-77
2023/01/12 18:23:35;;;;;;;;;14.00;10.33;;;;;25.30;39.38;100989.09;5069777;28;45479;-76
2023/01/12 18:26:06;;;;;;;;;14.67;12.00;;;;;25.35;39.49;100987.56;5054445;28;45494;-78
2023/01/12 18:28:32;;;;;;;;;12.33;9.67;;;;;25.40;39.48;100984.31;5051683;28;45364;-77
2023/01/12 18:31:09;;;;;;;;;10.67;9.00;;;;;25.44;39.52;100972.06;5055360;28;45992;-80
2023/01/12 18:33:34;;;;;;;;;17.00;13.67;;;;;25.47;39.39;100981.75;5053692;28;45477;-77
2023/01/12 18:36:00;;;;;;;;;11.33;11.00;;;;;25.50;39.63;100965.09;5055184;28;45669;-78
2023/01/12 18:38:26;;;;;;;;;13.67;12.67;;;;;25.57;39.63;100976.09;5053296;28;45570;-77
2023/01/12 18:43:40;;;;;;;;;13.00;9.00;;;;;25.63;39.44;100961.84;5053284;28;45438;-78
2023/01/12 18:46:12;;;;;;;;;9.33;8.67;;;;;25.65;39.35;100965.22;5058736;28;45552;-75
2023/01/12 19:51:39;;;;;;;;;6.33;6.00;;;;;20.13;44.39;100943.72;5048346;27;45865;-76
2023/01/12 19:54:04;;;;;;;;;9.33;7.67;;;;;20.34;44.50;100931.06;5042951;27;45405;-76
2023/01/12 19:56:30;;;;;;;;;8.00;8.00;;;;;20.69;45.02;100944.94;5049601;27;45695;-78
2023/01/12 19:58:55;;;;;;;;;6.00;6.00;;;;;21.12;45.40;100937.31;5043147;27;45478;-77
2023/01/12 20:01:22;;;;;;;;;6.67;6.33;;;;;21.53;45.47;100943.25;5041932;28;46208;-76
2023/01/12 20:03:52;;;;;;;;;6.33;5.33;;;;;21.93;44.71;100943.91;5050760;27;45410;-75
2023/01/12 20:06:17;;;;;;;;;8.00;7.00;;;;;22.35;44.77;100946.97;5061379;27;45557;-75
2023/01/12 20:08:43;;;;;;;;;7.67;6.00;;;;;22.70;44.70;100937.16;5045348;27;45524;-75
2023/01/12 20:11:08;;;;;;;;;6.00;6.00;;;;;23.01;44.69;100931.25;5045297;27;46036;-75
2023/01/12 20:13:34;;;;;;;;;6.33;6.00;;;;;23.32;44.11;100935.31;5037188;27;47157;-77
2023/01/12 20:16:09;;;;;;;;;9.67;6.67;;;;;23.58;43.78;100936.28;5050109;27;45359;-78
2023/01/12 20:18:35;;;;;;;;;6.67;4.00;;;;;23.78;43.30;100929.56;5045046;27;45636;-78
2023/01/12 20:21:02;;;;;;;;;9.00;7.00;;;;;23.95;43.11;100925.03;5037645;27;45451;-75
2023/01/12 20:23:27;;;;;;;;;5.00;5.00;;;;;24.13;42.84;100934.06;5038543;28;45307;-76
2023/01/12 20:25:53;;;;;;;;;8.00;5.00;;;;;24.29;42.84;100927.78;5046018;27;45333;-76
2023/01/12 20:28:18;;;;;;;;;6.00;5.00;;;;;24.44;42.67;100934.22;5044715;27;45396;-76
2023/01/12 20:30:43;;;;;;;;;7.00;6.00;;;;;24.56;42.61;100929.31;5046793;27;46109;-77
2023/01/12 20:33:10;;;;;;;;;5.67;4.33;;;;;24.73;42.13;100934.72;5044623;28;45423;-77
2023/01/12 20:35:37;;;;;;;;;4.67;4.67;;;;;24.87;42.07;100930.47;5033891;27;45666;-77
2023/01/12 20:38:05;;;;;;;;;4.00;4.00;;;;;24.97;41.64;100939.28;5033113;28;45594;-78
2023/01/12 20:40:31;;;;;;;;;5.00;5.00;;;;;25.07;41.53;100932.81;5045308;27;45380;-78
2023/01/12 20:42:56;;;;;;;;;5.67;4.33;;;;;25.16;41.26;100939.91;5043770;27;45557;-77
2023/01/12 20:45:22;;;;;;;;;2.67;2.67;;;;;25.25;41.48;100935.28;5046261;28;45527;-75
2023/01/12 20:47:47;;;;;;;;;7.33;4.33;;;;;25.34;41.17;100931.50;5030227;27;45540;-76
2023/01/12 20:50:13;;;;;;;;;8.00;5.00;;;;;25.41;41.01;100928.94;5047935;28;45544;-76
2023/01/12 20:52:39;;;;;;;;;6.67;6.00;;;;;25.48;41.13;100929.06;5039187;27;46335;-78
2023/01/12 20:55:05;;;;;;;;;5.00;4.33;;;;;25.54;40.89;100931.06;5047637;27;45489;-79
2023/01/12 20:57:33;;;;;;;;;4.00;3.00;;;;;25.60;40.90;100935.84;5048893;27;45685;-80
2023/01/12 20:59:59;;;;;;;;;5.00;4.00;;;;;25.65;40.94;100924.44;5046801;27;46082;-80
